Time;durP1;ratioP1;P1;durP2;ratioP2;P2;SDS_P1;SDS_P2;PMS_P1;PMS_P2;Temp;Humidity;BMP_temperature;BMP_pressure;BME280_temperature;BME280_humidity;BME280_pressure;Samples;Min_cycle;Max_cycle;Signal;HPM_P1;HPM_P2
2021/05/11 00:00:18;;;;;;;11.50;3.63;;;12.50;92.40;;;;;;4413908;28;657321;-71
2021/05/11 00:03:05;;;;;;;12.80;4.20;;;12.50;92.10;;;;;;4425114;28;658556;-71
2021/05/11 00:05:53;;;;;;;8.60;3.43;;;12.50;92.20;;;;;;4411740;28;657649;-71
2021/05/11 00:08:40;;;;;;;7.83;3.60;;;12.40;92.30;;;;;;4431449;28;657580;-71
2021/05/11 00:11:28;;;;;;;8.90;3.50;;;12.40;92.20;;;;;;4418232;28;656745;-71
2021/05/11 00:14:16;;;;;;;10.17;3.47;;;12.50;91.90;;;;;;4419957;28;657430;-71
2021/05/11 00:17:03;;;;;;;8.70;3.23;;;12.50;91.40;;;;;;4411373;28;657829;-71
2021/05/11 00:19:50;;;;;;;5.63;3.23;;;12.60;92.40;;;;;;4431600;28;657997;-71
2021/05/11 00:22:37;;;;;;;8.23;3.50;;;12.70;91.20;;;;;;4412989;28;656306;-71
2021/05/11 00:25:25;;;;;;;7.60;3.57;;;12.80;90.90;;;;;;4431655;28;656994;-71
2021/05/11 00:28:13;;;;;;;8.57;3.13;;;12.80;90.50;;;;;;4429404;28;656339;-71
2021/05/11 00:31:00;;;;;;;6.20;3.30;;;12.80;90.00;;;;;;4412461;28;657636;-71
2021/05/11 00:33:47;;;;;;;12.33;3.30;;;12.90;88.80;;;;;;4417655;28;656985;-71
2021/05/11 00:36:34;;;;;;;13.75;3.50;;;13.00;88.10;;;;;;4433995;28;657577;-70
2021/05/11 00:39:22;;;;;;;7.93;3.17;;;13.10;88.10;;;;;;4430076;28;658124;-70
2021/05/11 00:42:09;;;;;;;6.73;3.10;;;13.10;87.70;;;;;;4411988;28;656589;-70
2021/05/11 00:44:57;;;;;;;6.33;3.60;;;13.20;87.50;;;;;;4431193;28;657339;-70
2021/05/11 00:47:44;;;;;;;6.70;3.00;;;13.20;88.60;;;;;;4407564;28;657654;-71
2021/05/11 00:50:31;;;;;;;6.87;2.97;;;13.20;86.70;;;;;;4430922;28;656384;-70
2021/05/11 00:53:18;;;;;;;5.70;3.07;;;13.20;87.10;;;;;;4411744;28;657337;-70
2021/05/11 00:56:06;;;;;;;5.67;2.90;;;13.20;86.20;;;;;;4433345;28;656503;-71
2021/05/11 00:58:53;;;;;;;6.00;2.80;;;13.30;87.10;;;;;;4411940;28;656380;-70
2021/05/11 01:01:41;;;;;;;7.70;2.97;;;13.30;85.20;;;;;;4429248;28;657630;-71
2021/05/11 01:04:28;;;;;;;6.57;2.87;;;13.40;84.50;;;;;;4406913;28;656701;-71
2021/05/11 01:07:15;;;;;;;5.20;2.72;;;13.40;84.80;;;;;;4435106;28;656836;-71
2021/05/11 01:10:03;;;;;;;7.10;3.00;;;13.40;85.20;;;;;;4412500;28;656201;-70
2021/05/11 01:12:50;;;;;;;7.27;3.27;;;13.40;86.90;;;;;;4430677;28;657072;-70
2021/05/11 01:15:40;;;;;;;6.87;3.00;;;13.30;86.20;;;;;;4411932;28;656713;-70
2021/05/11 01:18:32;;;;;;;6.35;3.13;;;13.30;85.20;;;;;;4408540;28;656457;-71
2021/05/11 01:21:29;;;;;;;9.60;3.53;;;13.30;84.90;;;;;;4412174;28;656965;-70
2021/05/11 01:24:19;;;;;;;8.37;3.47;;;13.40;84.40;;;;;;4405967;28;657203;-70
2021/05/11 01:27:11;;;;;;;10.23;3.67;;;13.40;84.00;;;;;;4407942;28;656572;-70
2021/05/11 01:30:08;;;;;;;5.47;3.23;;;13.50;83.70;;;;;;4404703;28;657828;-71
2021/05/11 01:45:54;;;;;;;6.33;3.30;;;13.50;83.40;;;;;;4314424;28;656770;-71
2021/05/11 01:48:58;;;;;;;10.63;3.47;;;13.50;84.20;;;;;;4336691;28;656901;-71
2021/05/11 01:52:08;;;;;;;4.53;2.90;;;13.50;83.60;;;;;;4335086;28;657944;-71
2021/05/11 01:55:12;;;;;;;6.13;3.00;;;13.50;83.50;;;;;;4330806;28;657229;-70
2021/05/11 02:22:57;;;;;;;9.37;3.30;;;13.40;83.80;;;;;;4355737;28;657280;-70
2021/05/11 02:25:45;;;;;;;8.30;3.90;;;13.50;83.90;;;;;;4400866;28;657324;-71
2021/05/11 02:28:32;;;;;;;10.57;3.43;;;13.50;83.60;;;;;;4401183;28;656064;-70
2021/05/11 02:31:20;;;;;;;7.03;3.20;;;13.50;83.20;;;;;;4370594;28;658316;-70
2021/05/11 02:34:07;;;;;;;6.80;3.43;;;13.50;83.20;;;;;;4393800;28;656775;-70
2021/05/11 02:36:54;;;;;;;5.20;2.97;;;13.50;83.20;;;;;;4394671;28;655936;-70
2021/05/11 02:39:42;;;;;;;5.23;2.57;;;13.50;83.00;;;;;;4396885;28;656423;-70
2021/05/11 02:42:29;;;;;;;7.33;3.00;;;13.50;83.10;;;;;;4409249;28;656827;-71
2021/05/11 02:45:16;;;;;;;5.83;3.00;;;13.50;83.20;;;;;;4433569;28;657289;-71
2021/05/11 02:48:05;;;;;;;6.47;3.30;;;13.40;83.40;;;;;;4410950;28;656618;-71
2021/05/11 02:50:52;;;;;;;6.60;3.03;;;13.40;84.00;;;;;;4413674;28;656694;-71
2021/05/11 02:53:40;;;;;;;4.87;3.10;;;13.40;84.00;;;;;;4436819;28;656900;-70
2021/05/11 02:56:27;;;;;;;6.93;2.90;;;13.40;83.60;;;;;;4436326;28;656731;-70
2021/05/11 02:59:14;;;;;;;4.83;2.60;;;13.40;83.40;;;;;;4398369;28;657028;-70
2021/05/11 03:02:01;;;;;;;7.30;2.80;;;13.40;83.30;;;;;;4413617;28;655988;-70
2021/05/11 03:04:49;;;;;;;7.23;2.60;;;13.40;83.80;;;;;;4396539;28;656882;-70
2021/05/11 03:07:36;;;;;;;6.23;2.90;;;13.40;84.10;;;;;;4411895;28;656642;-70
2021/05/11 03:10:24;;;;;;;7.97;2.80;;;13.50;83.80;;;;;;4395049;28;656925;-70
2021/05/11 03:13:11;;;;;;;7.90;3.17;;;13.50;83.60;;;;;;4411791;28;657335;-70
2021/05/11 03:15:58;;;;;;;7.50;2.87;;;13.50;83.30;;;;;;4396161;28;656907;-70
2021/05/11 03:18:45;;;;;;;5.27;2.60;;;13.50;83.50;;;;;;4419359;28;656781;-70
2021/05/11 03:21:33;;;;;;;6.57;2.90;;;13.60;83.80;;;;;;4389602;28;656624;-71
2021/05/11 03:24:21;;;;;;;5.63;3.13;;;13.60;83.70;;;;;;4412543;28;657867;-71
2021/05/11 03:27:08;;;;;;;10.40;3.43;;;13.70;83.50;;;;;;4384747;28;657037;-71
2021/05/11 03:29:55;;;;;;;12.90;5.93;;;13.80;83.50;;;;;;4414388;28;659113;-71
2021/05/11 03:32:42;;;;;;;11.30;4.83;;;13.90;82.80;;;;;;4398274;28;657976;-70
2021/05/11 03:35:29;;;;;;;11.05;4.43;;;14.00;82.50;;;;;;4417808;28;658004;-71
2021/05/11 03:38:17;;;;;;;11.30;4.03;;;14.00;82.40;;;;;;4414096;28;657617;-71
2021/05/11 03:41:05;;;;;;;8.47;3.70;;;14.00;82.20;;;;;;4390063;28;658272;-70
2021/05/11 03:43:56;;;;;;;7.23;3.43;;;14.00;82.70;;;;;;4414149;28;656521;-70
2021/05/11 03:46:43;;;;;;;9.53;3.70;;;14.10;82.70;;;;;;4388330;28;656381;-71
2021/05/11 03:49:30;;;;;;;5.17;2.90;;;14.10;82.40;;;;;;4414999;28;657005;-70
2021/05/11 03:52:18;;;;;;;6.77;3.00;;;14.20;82.30;;;;;;4395474;28;657431;-70
2021/05/11 03:55:06;;;;;;;6.67;2.80;;;14.30;82.00;;;;;;4414731;28;657716;-71
2021/05/11 03:57:54;;;;;;;8.20;2.97;;;14.40;81.90;;;;;;4395418;28;657296;-71
2021/05/11 04:00:41;;;;;;;7.33;2.80;;;14.40;81.30;;;;;;4414552;28;657076;-71
2021/05/11 04:03:28;;;;;;;10.63;2.70;;;14.50;80.80;;;;;;4396454;28;656645;-71
2021/05/11 04:06:15;;;;;;;8.77;2.80;;;14.60;80.80;;;;;;4413789;28;657808;-70
2021/05/11 04:09:08;;;;;;;8.00;2.83;;;14.70;80.70;;;;;;4396515;28;656811;-70
2021/05/11 04:12:19;;;;;;;5.93;2.70;;;14.80;80.80;;;;;;4386177;28;657971;-70
2021/05/11 04:18:13;;;;;;;6.30;2.63;;;15.00;80.70;;;;;;4371179;28;657761;-71
2021/05/11 04:21:00;;;;;;;8.90;2.40;;;15.10;80.50;;;;;;4414541;28;657610;-71
2021/05/11 04:23:49;;;;;;;4.87;2.30;;;15.20;80.20;;;;;;4405438;28;656859;-71
2021/05/11 04:26:36;;;;;;;7.20;2.47;;;15.30;79.70;;;;;;4414188;28;656584;-71
2021/05/11 04:29:24;;;;;;;10.50;2.43;;;15.40;79.30;;;;;;4389102;28;656632;-70
2021/05/11 04:32:11;;;;;;;6.82;2.47;;;15.50;79.40;;;;;;4413122;28;657696;-71
2021/05/11 04:34:59;;;;;;;5.63;2.53;;;15.70;79.40;;;;;;4385504;28;656976;-71
2021/05/11 04:37:46;;;;;;;4.97;2.80;;;15.80;79.50;;;;;;4414387;28;657201;-71
2021/05/11 04:40:33;;;;;;;5.00;2.60;;;15.90;79.70;;;;;;4389760;28;657164;-71
2021/05/11 04:43:20;;;;;;;4.60;2.50;;;16.00;78.60;;;;;;4418320;28;657730;-71
2021/05/11 04:46:15;;;;;;;6.10;2.50;;;16.20;78.70;;;;;;4395247;28;656567;-70
2021/05/11 04:49:03;;;;;;;4.93;2.40;;;16.30;78.50;;;;;;4367014;28;656859;-71
2021/05/11 04:51:50;;;;;;;4.30;2.30;;;16.50;79.20;;;;;;4413729;28;656794;-71
2021/05/11 04:54:37;;;;;;;8.70;2.60;;;16.60;78.60;;;;;;4411795;28;656525;-71
2021/05/11 04:57:24;;;;;;;6.93;2.55;;;16.80;77.90;;;;;;4417750;28;656354;-71
2021/05/11 05:00:13;;;;;;;7.57;2.80;;;17.00;77.80;;;;;;4425613;28;657223;-71
2021/05/11 05:03:03;;;;;;;4.67;2.47;;;17.10;76.70;;;;;;4408186;28;657393;-71
2021/05/11 05:05:51;;;;;;;3.65;2.40;;;17.30;76.60;;;;;;4395681;28;657158;-71
2021/05/11 05:08:38;;;;;;;3.97;2.40;;;17.40;76.40;;;;;;4410536;28;657096;-70
2021/05/11 05:11:25;;;;;;;9.10;2.50;;;17.50;76.10;;;;;;4428648;28;657430;-71
2021/05/11 05:14:12;;;;;;;7.60;2.60;;;17.70;75.10;;;;;;4413607;28;657187;-71
2021/05/11 05:17:00;;;;;;;6.17;2.23;;;17.90;74.30;;;;;;4429497;28;657276;-71
2021/05/11 05:19:48;;;;;;;4.57;2.53;;;18.10;74.10;;;;;;4430517;28;656300;-71
2021/05/11 05:22:36;;;;;;;6.03;2.40;;;18.20;73.30;;;;;;4425387;28;657517;-71
2021/05/11 05:25:27;;;;;;;7.60;2.30;;;18.40;72.90;;;;;;4412272;28;656902;-71
2021/05/11 05:28:14;;;;;;;4.27;2.20;;;18.50;72.40;;;;;;4411834;28;656326;-71
2021/05/11 05:31:02;;;;;;;8.43;2.73;;;18.70;71.70;;;;;;4430466;28;656974;-71
2021/05/11 05:33:49;;;;;;;5.10;2.30;;;18.90;70.50;;;;;;4402707;28;657421;-71
2021/05/11 05:36:37;;;;;;;6.30;2.73;;;18.90;68.80;;;;;;4431259;28;656467;-71
2021/05/11 05:39:29;;;;;;;5.17;2.70;;;19.10;69.00;;;;;;4399837;28;657434;-71
2021/05/11 05:42:16;;;;;;;7.07;2.30;;;19.20;69.30;;;;;;4406802;28;657002;-71
2021/05/11 05:45:04;;;;;;;4.40;2.03;;;19.30;69.20;;;;;;4407474;28;656437;-71
2021/05/11 05:47:51;;;;;;;5.78;2.10;;;19.50;69.20;;;;;;4430807;28;656178;-70
2021/05/11 05:50:39;;;;;;;6.67;2.40;;;19.60;68.40;;;;;;4395001;28;656999;-70
2021/05/11 05:53:30;;;;;;;3.83;2.20;;;19.80;68.20;;;;;;4430832;28;656440;-71
2021/05/11 05:56:19;;;;;;;4.90;2.10;;;19.90;66.00;;;;;;4390994;28;656744;-71
2021/05/11 05:59:06;;;;;;;6.50;2.10;;;20.00;66.80;;;;;;4415100;28;657038;-71
2021/05/11 06:01:53;;;;;;;5.63;2.00;;;20.20;67.00;;;;;;4394289;28;656615;-71
2021/05/11 06:04:41;;;;;;;5.43;2.00;;;20.30;65.90;;;;;;4412972;28;657778;-71
2021/05/11 06:07:28;;;;;;;8.27;2.10;;;20.50;65.80;;;;;;4393292;28;656552;-71
2021/05/11 06:10:16;;;;;;;4.50;2.17;;;20.50;63.80;;;;;;4415129;28;656810;-71
2021/05/11 06:13:06;;;;;;;4.77;2.00;;;20.60;64.20;;;;;;4392039;28;656840;-71
2021/05/11 06:18:58;;;;;;;6.73;2.37;;;20.70;64.30;;;;;;4360823;28;657151;-71
2021/05/11 06:21:46;;;;;;;5.50;2.27;;;20.80;63.40;;;;;;4413645;28;656744;-71
2021/05/11 06:24:33;;;;;;;5.93;2.13;;;20.90;65.00;;;;;;4393230;28;656852;-66
2021/05/11 06:27:21;;;;;;;5.20;2.17;;;21.00;64.20;;;;;;4416264;28;657669;-66
2021/05/11 06:30:11;;;;;;;6.43;2.63;;;21.20;64.30;;;;;;4389708;28;657102;-67
2021/05/11 06:32:58;;;;;;;8.20;2.27;;;21.30;64.70;;;;;;4394852;28;656786;-66
2021/05/11 06:35:47;;;;;;;8.20;2.63;;;21.20;63.10;;;;;;4414614;28;657412;-66
2021/05/11 06:38:34;;;;;;;3.77;2.30;;;21.30;63.80;;;;;;4390575;28;657439;-66
2021/05/11 06:41:21;;;;;;;5.23;2.40;;;21.40;64.00;;;;;;4415434;28;656712;-66
2021/05/11 06:44:13;;;;;;;5.43;2.63;;;21.50;64.10;;;;;;4393002;28;656934;-67
2021/05/11 06:50:29;;;;;;;5.67;2.90;;;21.50;64.10;;;;;;4388327;28;656674;-66
2021/05/11 06:53:16;;;;;;;5.50;2.93;;;21.70;63.80;;;;;;4391749;28;656398;-65
2021/05/11 06:56:04;;;;;;;5.40;2.50;;;21.80;64.40;;;;;;4394730;28;656455;-66
2021/05/11 06:58:52;;;;;;;6.27;2.93;;;22.00;63.30;;;;;;4423066;28;656851;-66
2021/05/11 07:01:40;;;;;;;8.97;2.97;;;22.00;62.00;;;;;;4415811;28;656769;-66
2021/05/11 07:04:27;;;;;;;8.10;2.70;;;22.10;62.50;;;;;;4429127;28;656986;-68
2021/05/11 07:07:16;;;;;;;6.13;2.73;;;22.20;63.10;;;;;;4434158;28;656847;-66
2021/05/11 07:10:11;;;;;;;7.13;2.50;;;22.30;63.20;;;;;;4414720;28;656795;-66
2021/05/11 07:13:10;;;;;;;8.10;2.53;;;22.40;62.20;;;;;;4407593;28;656387;-65
2021/05/11 07:15:57;;;;;;;5.47;2.30;;;22.50;62.10;;;;;;4393967;28;656502;-66
2021/05/11 07:18:46;;;;;;;5.47;2.57;;;22.70;61.90;;;;;;4405409;28;657445;-67
2021/05/11 07:21:33;;;;;;;10.10;2.60;;;22.90;63.20;;;;;;4412554;28;657209;-67
2021/05/11 07:24:25;;;;;;;7.87;2.87;;;23.00;62.00;;;;;;4427061;28;658161;-68
2021/05/11 07:27:29;;;;;;;6.53;2.80;;;23.10;64.10;;;;;;4400720;28;656933;-68
2021/05/11 07:30:25;;;;;;;5.97;2.80;;;23.20;61.30;;;;;;4410686;28;657026;-67
2021/05/11 07:33:13;;;;;;;9.98;2.60;;;23.30;60.20;;;;;;4389645;28;656859;-66
2021/05/11 07:36:01;;;;;;;6.83;2.20;;;23.30;60.40;;;;;;4424536;28;656597;-65
2021/05/11 07:38:49;;;;;;;5.30;2.50;;;23.50;62.10;;;;;;4407914;28;657154;-66
2021/05/11 07:41:36;;;;;;;12.37;2.77;;;23.70;61.30;;;;;;4431181;28;657401;-65
2021/05/11 07:44:23;;;;;;;10.23;2.80;;;23.80;60.80;;;;;;4412889;28;657645;-66
2021/05/11 07:47:13;;;;;;;7.73;2.50;;;24.10;60.10;;;;;;4426604;28;658497;-65
2021/05/11 08:01:52;;;;;;;8.37;2.87;;;24.60;63.10;;;;;;4355788;28;656382;-66
2021/05/11 08:09:44;;;;;;;7.80;2.50;;;24.90;62.50;;;;;;4351555;28;656832;-65
2021/05/11 08:09:57;;;;;;;4.60;2.47;;;24.90;62.60;;;;;;4352051;28;656319;-65
2021/05/11 08:15:52;;;;;;;6.97;2.90;;;25.30;61.20;;;;;;4337642;28;657427;-65
2021/05/11 08:18:45;;;;;;;13.53;2.90;;;25.50;60.90;;;;;;4355658;28;656805;-65
2021/05/11 08:27:59;;;;;;;8.20;2.60;;;25.70;59.60;;;;;;4322343;28;657698;-65
2021/05/11 08:30:46;;;;;;;7.57;2.90;;;25.90;59.10;;;;;;4372426;28;656523;-66
2021/05/11 08:33:34;;;;;;;10.67;3.30;;;26.20;58.90;;;;;;4341982;28;657828;-65
2021/05/11 08:36:21;;;;;;;9.25;2.72;;;26.30;58.30;;;;;;4375481;28;657693;-65
2021/05/11 08:39:08;;;;;;;11.88;2.70;;;26.40;57.70;;;;;;4352572;28;656862;-65
2021/05/11 08:41:56;;;;;;;10.77;2.93;;;26.40;57.10;;;;;;4375292;28;657911;-65
2021/05/11 08:44:44;;;;;;;3.03;2.10;;;26.60;54.90;;;;;;4354124;28;659150;-65
2021/05/11 08:47:31;;;;;;;7.38;2.42;;;26.60;55.90;;;;;;4377861;28;657472;-65
2021/05/11 08:50:20;;;;;;;8.07;2.90;;;26.80;56.50;;;;;;4353773;28;656415;-66
2021/05/11 08:53:26;;;;;;;7.70;2.45;;;26.90;54.40;;;;;;4363949;28;657375;-66
2021/05/11 09:09:08;;;;;;;7.55;2.45;;;27.80;53.30;;;;;;4337977;28;656095;-67
2021/05/11 09:24:52;;;;;;;16.48;2.70;;;28.40;50.90;;;;;;4351288;28;656902;-65
2021/05/11 09:27:46;;;;;;;18.17;3.05;;;28.40;51.10;;;;;;4330703;28;658337;-65
2021/05/11 09:30:55;;;;;;;8.05;2.42;;;28.60;51.10;;;;;;4330931;28;658034;-65
2021/05/11 09:33:49;;;;;;;8.45;2.35;;;28.70;50.90;;;;;;4341893;28;656632;-66
2021/05/11 09:50:55;;;;;;;10.55;3.80;;;29.10;50.00;;;;;;4370434;28;656580;-65
2021/05/11 09:54:16;;;;;;;8.32;3.22;;;29.40;50.70;;;;;;4348102;28;658673;-65
2021/05/11 10:12:18;;;;;;;4.25;2.00;;;30.40;49.60;;;;;;4353036;28;657152;-65
2021/05/11 10:31:25;;;;;;;6.80;2.05;;;31.10;48.20;;;;;;4300451;28;657298;-65
2021/05/11 10:46:31;;;;;;;7.32;2.47;;;31.60;47.00;;;;;;4300096;28;657323;-65
2021/05/11 10:49:26;;;;;;;8.65;2.33;;;31.50;46.10;;;;;;4301146;28;657435;-66
2021/05/11 10:52:15;;;;;;;9.43;2.13;;;31.70;47.10;;;;;;4326886;28;657107;-66
2021/05/11 10:55:07;;;;;;;5.43;2.10;;;31.90;46.50;;;;;;4344591;28;656468;-66
2021/05/11 10:57:57;;;;;;;7.15;2.30;;;32.30;47.40;;;;;;4291892;28;657064;-65
2021/05/11 11:00:46;;;;;;;4.72;2.30;;;32.20;45.20;;;;;;4326579;28;659669;-65
2021/05/11 11:03:33;;;;;;;8.82;2.33;;;32.40;45.70;;;;;;4321450;28;657356;-66
2021/05/11 11:06:22;;;;;;;6.50;2.40;;;32.20;45.50;;;;;;4341189;28;657181;-66
2021/05/11 11:09:09;;;;;;;6.50;2.20;;;32.40;45.40;;;;;;4391244;28;657517;-66
2021/05/11 11:11:57;;;;;;;5.00;2.10;;;32.60;45.80;;;;;;4410560;28;656189;-65
2021/05/11 11:14:44;;;;;;;7.07;2.08;;;32.50;46.40;;;;;;4393391;28;658438;-65
2021/05/11 11:17:31;;;;;;;5.68;2.10;;;32.70;45.60;;;;;;4415837;28;656849;-65
2021/05/11 11:20:20;;;;;;;5.03;1.90;;;32.70;43.60;;;;;;4396832;28;656734;-66
2021/05/11 11:26:14;;;;;;;6.30;1.80;;;33.00;46.00;;;;;;4369660;28;657271;-67
2021/05/11 11:29:01;;;;;;;4.50;1.80;;;33.00;42.70;;;;;;4415718;28;656621;-65
2021/05/11 11:31:48;;;;;;;4.60;1.88;;;32.70;42.20;;;;;;4396926;28;657071;-66
2021/05/11 11:34:36;;;;;;;4.67;1.80;;;32.70;39.50;;;;;;4407121;28;657657;-66
2021/05/11 11:37:25;;;;;;;6.78;2.10;;;32.70;41.30;;;;;;4388817;28;656537;-65
2021/05/11 11:40:16;;;;;;;3.97;1.55;;;33.00;39.70;;;;;;4410985;28;657528;-68
2021/05/11 11:43:04;;;;;;;5.60;1.60;;;32.70;38.60;;;;;;4396825;28;657125;-65
2021/05/11 11:45:51;;;;;;;5.43;1.52;;;32.20;40.80;;;;;;4415358;28;657256;-65
2021/05/11 11:48:38;;;;;;;4.55;1.80;;;32.10;41.90;;;;;;4389062;28;657752;-65
2021/05/11 11:51:29;;;;;;;6.70;2.38;;;31.90;41.50;;;;;;4414500;28;657682;-65
2021/05/11 11:54:21;;;;;;;3.33;1.98;;;32.20;43.30;;;;;;4387744;28;656788;-66
2021/05/11 12:00:28;;;;;;;7.33;1.73;;;32.70;40.90;;;;;;4364346;28;657555;-67
2021/05/11 12:03:17;;;;;;;5.30;1.52;;;33.10;41.90;;;;;;4406087;28;656565;-65
2021/05/11 12:06:04;;;;;;;7.70;4.97;;;33.60;40.50;;;;;;4379801;28;657460;-65
2021/05/11 12:08:51;;;;;;;5.07;2.50;;;33.90;39.70;;;;;;4405224;28;656771;-65
2021/05/11 12:11:39;;;;;;;4.33;1.30;;;34.30;40.20;;;;;;4382441;28;656816;-65
2021/05/11 12:14:27;;;;;;;3.75;1.60;;;34.30;39.40;;;;;;4411455;28;656479;-65
2021/05/11 12:17:16;;;;;;;5.88;2.05;;;34.50;39.80;;;;;;4379726;28;657643;-66
2021/05/11 12:20:21;;;;;;;6.25;1.70;;;34.50;37.90;;;;;;4381535;28;657045;-65
2021/05/11 12:23:14;;;;;;;5.97;1.77;;;34.30;38.60;;;;;;4360146;28;656776;-65
2021/05/11 12:26:02;;;;;;;3.80;1.50;;;34.50;37.70;;;;;;4381995;28;656888;-65
2021/05/11 12:28:49;;;;;;;5.85;1.85;;;34.40;36.80;;;;;;4383170;28;656696;-65
2021/05/11 12:31:38;;;;;;;4.13;1.50;;;34.20;37.40;;;;;;4401704;28;656012;-65
2021/05/11 12:34:25;;;;;;;9.05;2.10;;;34.00;38.50;;;;;;4387427;28;657535;-65
2021/05/11 12:37:13;;;;;;;4.25;1.50;;;34.10;38.20;;;;;;4380795;28;656437;-66
2021/05/11 12:40:03;;;;;;;12.38;2.05;;;33.50;36.50;;;;;;4404831;28;657007;-66
2021/05/11 12:42:50;;;;;;;9.68;1.85;;;32.90;39.40;;;;;;4379242;28;658708;-66
2021/05/11 12:45:50;;;;;;;4.75;1.63;;;33.30;40.50;;;;;;4396091;28;656456;-67
2021/05/11 12:48:48;;;;;;;4.97;1.80;;;33.60;38.60;;;;;;4383993;28;656720;-67
2021/05/11 12:51:38;;;;;;;4.68;1.52;;;34.10;38.20;;;;;;4383950;28;656855;-66
2021/05/11 12:54:27;;;;;;;5.38;1.63;;;34.50;38.10;;;;;;4378360;28;658674;-66
2021/05/11 12:57:30;;;;;;;9.48;1.58;;;34.10;37.80;;;;;;4376066;28;658160;-66
2021/05/11 13:00:27;;;;;;;6.55;1.60;;;34.10;38.10;;;;;;4376676;28;656876;-67
2021/05/11 13:03:36;;;;;;;3.97;1.40;;;34.60;36.70;;;;;;4386983;28;656654;-67
2021/05/11 13:13:35;;;;;;;3.45;1.52;;;34.90;35.80;;;;;;4368131;28;657350;-66
2021/05/11 13:16:13;;;;;;;8.48;1.70;;;35.20;37.60;;;;;;4386847;28;657396;-66
2021/05/11 13:22:24;;;;;;;5.78;2.05;;;35.20;37.70;;;;;;4379360;28;656704;-66
2021/05/11 13:25:20;;;;;;;7.53;2.13;;;35.10;36.60;;;;;;4383113;28;656918;-66
2021/05/11 13:28:12;;;;;;;4.93;2.13;;;34.90;37.00;;;;;;4369270;28;656518;-66
2021/05/11 13:31:03;;;;;;;3.33;1.35;;;34.80;35.90;;;;;;4395224;28;656442;-66
2021/05/11 13:33:55;;;;;;;6.90;1.90;;;35.40;37.60;;;;;;4388217;28;657438;-66
2021/05/11 13:36:42;;;;;;;3.72;1.80;;;35.30;36.50;;;;;;4386307;28;656409;-67
2021/05/11 13:39:30;;;;;;;5.37;2.20;;;35.40;37.00;;;;;;4414779;28;657579;-66
2021/05/11 13:42:17;;;;;;;5.53;1.90;;;35.10;36.40;;;;;;4389572;28;656889;-67
2021/05/11 13:45:06;;;;;;;9.73;1.90;;;35.10;35.50;;;;;;4413288;28;657980;-65
2021/05/11 13:47:59;;;;;;;10.63;2.00;;;35.50;36.90;;;;;;4389366;28;656514;-66
2021/05/11 13:50:54;;;;;;;8.63;1.60;;;35.30;36.60;;;;;;4389988;28;657352;-66
2021/05/11 13:53:44;;;;;;;8.90;2.20;;;35.30;34.20;;;;;;4390572;28;657057;-66
2021/05/11 14:02:44;;;;;;;10.37;2.70;;;35.20;35.60;;;;;;4381992;28;657423;-66
2021/05/11 14:05:31;;;;;;;11.43;2.13;;;34.90;36.20;;;;;;4406761;28;657942;-66
2021/05/11 14:08:18;;;;;;;12.07;2.33;;;34.80;35.50;;;;;;4410894;28;658187;-67
2021/05/11 14:11:05;;;;;;;6.50;2.15;;;34.90;35.70;;;;;;4433858;28;657974;-66
2021/05/11 14:13:53;;;;;;;6.80;2.13;;;34.90;36.50;;;;;;4416497;28;656462;-67
2021/05/11 14:16:41;;;;;;;7.67;2.47;;;35.00;38.40;;;;;;4416004;28;657345;-69
2021/05/11 14:19:30;;;;;;;5.20;1.85;;;35.40;36.80;;;;;;4411861;28;656629;-66
2021/05/11 14:22:19;;;;;;;8.15;2.45;;;35.50;36.00;;;;;;4405932;28;656658;-67
2021/05/11 14:25:08;;;;;;;6.20;2.13;;;35.50;35.10;;;;;;4424578;28;656662;-66
2021/05/11 14:27:55;;;;;;;7.87;1.97;;;35.40;35.40;;;;;;4406508;28;656997;-66
2021/05/11 14:30:43;;;;;;;7.40;2.00;;;35.40;35.70;;;;;;4411892;28;656456;-66
2021/05/11 14:33:31;;;;;;;3.33;2.00;;;35.30;35.50;;;;;;4430513;28;657304;-66
2021/05/11 14:36:18;;;;;;;7.35;2.10;;;35.30;36.00;;;;;;4411637;28;657847;-67
2021/05/11 14:39:05;;;;;;;9.65;2.13;;;35.30;34.80;;;;;;4430664;28;657511;-66
2021/05/11 14:41:54;;;;;;;9.90;2.25;;;35.10;35.70;;;;;;4411042;28;656843;-68
2021/05/11 14:44:41;;;;;;;5.57;2.10;;;35.00;35.50;;;;;;4430750;28;656508;-66
2021/05/11 14:47:29;;;;;;;11.68;1.92;;;34.80;35.00;;;;;;4403748;28;657603;-66
2021/05/11 14:50:17;;;;;;;7.97;2.50;;;34.70;35.70;;;;;;4430345;28;658209;-66
2021/05/11 14:53:04;;;;;;;9.93;2.15;;;34.40;35.50;;;;;;4411475;28;657948;-67
2021/05/11 14:55:51;;;;;;;4.18;1.80;;;34.50;36.40;;;;;;4424004;28;656582;-67
2021/05/11 14:58:38;;;;;;;6.88;1.83;;;34.60;35.70;;;;;;4400703;28;656445;-66
2021/05/11 15:01:25;;;;;;;7.63;1.85;;;34.70;35.50;;;;;;4429596;28;658252;-66
2021/05/11 15:04:13;;;;;;;12.57;2.30;;;34.60;36.30;;;;;;4414574;28;656412;-67
2021/05/11 15:07:00;;;;;;;13.55;2.55;;;34.60;35.80;;;;;;4432695;28;658449;-66
2021/05/11 15:09:47;;;;;;;12.77;2.30;;;34.60;36.30;;;;;;4412854;28;657924;-67
2021/05/11 15:12:35;;;;;;;11.20;2.30;;;34.70;36.70;;;;;;4430918;28;659192;-66
2021/05/11 15:15:22;;;;;;;3.83;1.92;;;34.60;35.80;;;;;;4430590;28;657597;-67
2021/05/11 15:18:10;;;;;;;7.90;2.53;;;34.70;35.90;;;;;;4437646;28;658357;-66
2021/05/11 15:20:58;;;;;;;9.30;2.45;;;35.00;35.50;;;;;;4437202;28;656670;-65
2021/05/11 15:23:47;;;;;;;9.25;2.17;;;35.30;35.50;;;;;;4404710;28;656981;-66
2021/05/11 15:26:34;;;;;;;8.52;2.28;;;35.40;36.20;;;;;;4408060;28;657027;-66
2021/05/11 15:29:21;;;;;;;6.47;2.15;;;35.50;34.80;;;;;;4418787;28;657879;-66
2021/05/11 15:32:36;;;;;;;9.00;2.10;;;36.50;33.90;;;;;;4390003;28;656470;-67
2021/05/11 15:35:23;;;;;;;11.93;2.10;;;38.40;32.00;;;;;;4381353;28;657065;-68
2021/05/11 15:38:12;;;;;;;9.30;2.60;;;40.20;29.10;;;;;;4424240;28;658830;-68
2021/05/11 15:40:59;;;;;;;4.80;1.85;;;41.10;29.10;;;;;;4413999;28;657489;-67
2021/05/11 15:43:47;;;;;;;5.95;2.33;;;39.80;29.40;;;;;;4428042;28;656506;-68
2021/05/11 15:46:34;;;;;;;6.03;2.25;;;38.50;30.40;;;;;;4411907;28;656799;-67
2021/05/11 15:49:21;;;;;;;9.15;2.28;;;39.90;29.30;;;;;;4428875;28;657343;-67
2021/05/11 15:52:08;;;;;;;5.95;2.25;;;41.60;28.10;;;;;;4413988;28;656754;-67
2021/05/11 15:54:56;;;;;;;6.20;2.30;;;43.30;27.40;;;;;;4436557;28;657487;-67
2021/05/11 15:57:43;;;;;;;5.68;2.20;;;44.30;26.00;;;;;;4405967;28;657805;-68
2021/05/11 16:00:31;;;;;;;7.25;2.40;;;44.80;25.50;;;;;;4432279;28;656645;-67
2021/05/11 16:03:18;;;;;;;11.32;2.25;;;45.20;26.30;;;;;;4412963;28;656871;-68
2021/05/11 16:06:05;;;;;;;7.28;2.20;;;45.50;24.70;;;;;;4429438;28;658640;-67
2021/05/11 16:08:53;;;;;;;9.57;2.00;;;45.10;24.40;;;;;;4416368;28;656783;-69
2021/05/11 16:11:41;;;;;;;8.77;2.05;;;44.30;25.40;;;;;;4429570;28;657206;-67
2021/05/11 16:14:28;;;;;;;6.88;2.05;;;44.40;25.40;;;;;;4412210;28;657909;-68
2021/05/11 16:17:15;;;;;;;6.68;2.40;;;44.90;24.90;;;;;;4430481;28;657774;-67
2021/05/11 16:20:03;;;;;;;6.30;1.90;;;45.20;24.30;;;;;;4412558;28;656880;-68
2021/05/11 16:22:50;;;;;;;7.70;2.10;;;44.40;24.50;;;;;;4426843;28;657444;-67
2021/05/11 16:25:38;;;;;;;6.65;2.13;;;44.60;24.90;;;;;;4371416;28;656431;-67
2021/05/11 16:28:26;;;;;;;3.60;2.15;;;44.40;25.00;;;;;;4429356;28;658064;-67
2021/05/11 16:31:13;;;;;;;4.70;2.00;;;44.80;24.90;;;;;;4405711;28;656802;-68
2021/05/11 16:34:03;;;;;;;6.70;1.90;;;44.90;24.70;;;;;;4429307;28;657918;-67
2021/05/11 16:36:50;;;;;;;8.80;2.40;;;44.90;24.70;;;;;;4404203;28;657362;-67
2021/05/11 16:39:40;;;;;;;9.30;2.20;;;44.70;24.60;;;;;;4418499;28;656263;-69
2021/05/11 16:42:27;;;;;;;10.15;2.10;;;44.90;25.00;;;;;;4424445;28;657303;-69
2021/05/11 16:45:16;;;;;;;5.77;2.20;;;44.30;24.40;;;;;;4431744;28;657333;-67
2021/05/11 16:48:03;;;;;;;8.13;2.78;;;43.50;24.60;;;;;;4409332;28;656633;-67
2021/05/11 16:50:50;;;;;;;9.23;2.70;;;43.00;25.00;;;;;;4429774;28;657561;-67
2021/05/11 16:53:37;;;;;;;6.90;2.50;;;42.40;25.50;;;;;;4411965;28;657011;-69
2021/05/11 16:56:24;;;;;;;6.40;2.40;;;42.40;25.80;;;;;;4434048;28;656932;-67
2021/05/11 16:59:12;;;;;;;15.85;2.50;;;42.10;25.70;;;;;;4428447;28;656963;-68
2021/05/11 17:02:00;;;;;;;19.23;5.53;;;41.50;25.80;;;;;;4408953;28;659294;-67
2021/05/11 17:04:47;;;;;;;7.55;2.63;;;41.30;26.20;;;;;;4423239;28;657786;-68
2021/05/11 17:07:34;;;;;;;15.03;4.23;;;40.90;26.40;;;;;;4432469;28;656535;-68
2021/05/11 17:10:22;;;;;;;9.15;2.63;;;40.80;26.90;;;;;;4428449;28;657963;-67
2021/05/11 17:13:10;;;;;;;7.63;2.30;;;40.30;27.20;;;;;;4411308;28;657219;-68
2021/05/11 17:15:57;;;;;;;8.10;2.60;;;39.70;27.60;;;;;;4428354;28;656797;-68
2021/05/11 17:18:45;;;;;;;7.68;2.90;;;39.20;28.30;;;;;;4431399;28;657857;-67
2021/05/11 17:21:33;;;;;;;7.63;3.75;;;39.00;28.50;;;;;;4412277;28;656890;-68
2021/05/11 17:24:20;;;;;;;12.07;4.10;;;38.50;29.10;;;;;;4431277;28;657616;-67